sensor_id;sensor_type;location;lat;lon;timestamp;pressure;altitude;pressure_sealevel;temperature;humidity
56241;BME280;42155;53.096;23.226;2023-02-02T00:00:04;98458.41;;;2.91;77.88
56241;BME280;42155;53.096;23.226;2023-02-02T00:02:05;98446.66;;;2.97;77.96
56241;BME280;42155;53.096;23.226;2023-02-02T00:04:05;98457.97;;;2.97;78.09
56241;BME280;42155;53.096;23.226;2023-02-02T00:06:06;98452.22;;;2.92;78.68
56241;BME280;42155;53.096;23.226;2023-02-02T00:08:06;98441.34;;;2.86;78.50
56241;BME280;42155;53.096;23.226;2023-02-02T00:10:06;98450.56;;;2.91;78.10
56241;BME280;42155;53.096;23.226;2023-02-02T00:12:08;98441.97;;;2.89;78.65
56241;BME280;42155;53.096;23.226;2023-02-02T00:14:09;98451.97;;;2.95;78.52
56241;BME280;42155;53.096;23.226;2023-02-02T00:18:25;98421.47;;;2.83;78.36
56241;BME280;42155;53.096;23.226;2023-02-02T00:20:25;98416.84;;;2.87;78.00
56241;BME280;42155;53.096;23.226;2023-02-02T00:22:26;98436.25;;;2.95;78.15
56241;BME280;42155;53.096;23.226;2023-02-02T00:24:26;98450.81;;;2.99;78.51
56241;BME280;42155;53.096;23.226;2023-02-02T00:26:27;98450.22;;;2.96;78.09
56241;BME280;42155;53.096;23.226;2023-02-02T00:28:27;98459.75;;;2.97;78.00
56241;BME280;42155;53.096;23.226;2023-02-02T00:30:27;98441.78;;;2.79;77.97
56241;BME280;42155;53.096;23.226;2023-02-02T00:32:27;98454.56;;;2.84;78.52
56241;BME280;42155;53.096;23.226;2023-02-02T00:34:28;98453.44;;;2.75;78.67
56241;BME280;42155;53.096;23.226;2023-02-02T00:36:28;98411.38;;;2.42;78.47
56241;BME280;42155;53.096;23.226;2023-02-02T00:38:29;98450.66;;;2.66;79.15
56241;BME280;42155;53.096;23.226;2023-02-02T00:40:30;98433.31;;;2.52;79.13
56241;BME280;42155;53.096;23.226;2023-02-02T00:42:30;98449.00;;;2.65;78.89
56241;BME280;42155;53.096;23.226;2023-02-02T00:44:30;98438.94;;;2.59;79.04
56241;BME280;42155;53.096;23.226;2023-02-02T00:46:31;98382.94;;;2.24;78.98
56241;BME280;42155;53.096;23.226;2023-02-02T00:48:31;98448.16;;;2.64;79.06
56241;BME280;42155;53.096;23.226;2023-02-02T00:50:32;98440.13;;;2.54;79.58
56241;BME280;42155;53.096;23.226;2023-02-02T00:52:32;98444.63;;;2.52;79.93
56241;BME280;42155;53.096;23.226;2023-02-02T00:54:32;98439.38;;;2.52;79.31
56241;BME280;42155;53.096;23.226;2023-02-02T00:56:33;98441.88;;;2.54;79.95
56241;BME280;42155;53.096;23.226;2023-02-02T00:58:33;98431.25;;;2.44;79.46
56241;BME280;42155;53.096;23.226;2023-02-02T01:00:33;98437.28;;;2.58;79.80
56241;BME280;42155;53.096;23.226;2023-02-02T01:02:34;98440.00;;;2.56;79.63
56241;BME280;42155;53.096;23.226;2023-02-02T01:04:35;98436.66;;;2.54;80.03
56241;BME280;42155;53.096;23.226;2023-02-02T01:06:35;98438.44;;;2.53;79.45
56241;BME280;42155;53.096;23.226;2023-02-02T01:08:36;98434.28;;;2.51;80.30
56241;BME280;42155;53.096;23.226;2023-02-02T01:10:36;98440.47;;;2.50;80.16
56241;BME280;42155;53.096;23.226;2023-02-02T01:12:36;98430.53;;;2.42;79.90
56241;BME280;42155;53.096;23.226;2023-02-02T01:14:37;98446.53;;;2.50;80.26
56241;BME280;42155;53.096;23.226;2023-02-02T01:16:37;98460.34;;;2.52;80.20
56241;BME280;42155;53.096;23.226;2023-02-02T01:18:37;98417.75;;;2.38;80.44
56241;BME280;42155;53.096;23.226;2023-02-02T01:20:38;98443.47;;;2.57;79.75
56241;BME280;42155;53.096;23.226;2023-02-02T01:22:38;98442.41;;;2.59;79.63
56241;BME280;42155;53.096;23.226;2023-02-02T01:24:38;98386.19;;;2.28;79.95
56241;BME280;42155;53.096;23.226;2023-02-02T01:26:39;98447.31;;;2.64;80.33
56241;BME280;42155;53.096;23.226;2023-02-02T01:28:40;98414.50;;;2.47;79.96
56241;BME280;42155;53.096;23.226;2023-02-02T01:30:40;98409.38;;;2.45;79.84
56241;BME280;42155;53.096;23.226;2023-02-02T01:32:40;98439.47;;;2.64;79.51
56241;BME280;42155;53.096;23.226;2023-02-02T01:34:41;98442.91;;;2.64;80.14
56241;BME280;42155;53.096;23.226;2023-02-02T01:36:41;98441.97;;;2.65;80.38
56241;BME280;42155;53.096;23.226;2023-02-02T01:38:41;98439.88;;;2.58;80.19
56241;BME280;42155;53.096;23.226;2023-02-02T01:40:46;98438.56;;;2.52;80.10
56241;BME280;42155;53.096;23.226;2023-02-02T01:42:46;98436.22;;;2.60;80.32
56241;BME280;42155;53.096;23.226;2023-02-02T01:46:50;98443.75;;;2.65;80.07
56241;BME280;42155;53.096;23.226;2023-02-02T01:49:13;98445.28;;;2.67;80.33
56241;BME280;42155;53.096;23.226;2023-02-02T01:51:17;98439.97;;;2.69;80.34
56241;BME280;42155;53.096;23.226;2023-02-02T01:53:18;98440.88;;;2.68;80.12
56241;BME280;42155;53.096;23.226;2023-02-02T01:55:21;98432.81;;;2.71;79.97
56241;BME280;42155;53.096;23.226;2023-02-02T01:57:48;98434.50;;;2.72;80.20
56241;BME280;42155;53.096;23.226;2023-02-02T01:59:51;98433.78;;;2.70;80.11
56241;BME280;42155;53.096;23.226;2023-02-02T02:01:52;98431.88;;;2.72;80.43
56241;BME280;42155;53.096;23.226;2023-02-02T02:03:53;98442.25;;;2.73;80.26
56241;BME280;42155;53.096;23.226;2023-02-02T02:08:07;98438.69;;;2.74;80.53
56241;BME280;42155;53.096;23.226;2023-02-02T02:10:09;98434.28;;;2.75;80.14
56241;BME280;42155;53.096;23.226;2023-02-02T02:12:11;98447.59;;;2.72;80.82
56241;BME280;42155;53.096;23.226;2023-02-02T02:14:13;98441.00;;;2.66;80.42
56241;BME280;42155;53.096;23.226;2023-02-02T02:21:21;98441.41;;;2.73;80.79
56241;BME280;42155;53.096;23.226;2023-02-02T02:23:35;98437.84;;;2.74;81.00
56241;BME280;42155;53.096;23.226;2023-02-02T02:37:01;98454.53;;;2.73;81.02
56241;BME280;42155;53.096;23.226;2023-02-02T02:39:11;98455.44;;;2.72;80.99
56241;BME280;42155;53.096;23.226;2023-02-02T02:41:23;98434.91;;;2.54;80.89
56241;BME280;42155;53.096;23.226;2023-02-02T02:43:30;98449.50;;;2.70;80.92
56241;BME280;42155;53.096;23.226;2023-02-02T02:45:32;98452.13;;;2.70;81.01
56241;BME280;42155;53.096;23.226;2023-02-02T02:47:34;98451.28;;;2.69;80.50
56241;BME280;42155;53.096;23.226;2023-02-02T02:49:45;98441.34;;;2.62;80.92
56241;BME280;42155;53.096;23.226;2023-02-02T02:51:50;98442.91;;;2.64;81.25
56241;BME280;42155;53.096;23.226;2023-02-02T02:53:51;98400.28;;;2.38;81.06
56241;BME280;42155;53.096;23.226;2023-02-02T02:57:17;98449.09;;;2.63;81.31
56241;BME280;42155;53.096;23.226;2023-02-02T03:01:00;98426.84;;;2.45;81.14
56241;BME280;42155;53.096;23.226;2023-02-02T03:07:28;98454.88;;;2.55;80.85
56241;BME280;42155;53.096;23.226;2023-02-02T03:09:35;98451.53;;;2.53;81.47
56241;BME280;42155;53.096;23.226;2023-02-02T03:11:36;98460.53;;;2.49;81.39
56241;BME280;42155;53.096;23.226;2023-02-02T03:13:38;98444.47;;;2.30;81.42
56241;BME280;42155;53.096;23.226;2023-02-02T03:15:43;98414.78;;;2.18;81.63
56241;BME280;42155;53.096;23.226;2023-02-02T03:17:45;98458.03;;;2.48;81.20
56241;BME280;42155;53.096;23.226;2023-02-02T03:19:46;98458.88;;;2.48;81.28
56241;BME280;42155;53.096;23.226;2023-02-02T03:21:46;98470.75;;;2.41;81.28
56241;BME280;42155;53.096;23.226;2023-02-02T03:23:47;98463.50;;;2.45;81.33
56241;BME280;42155;53.096;23.226;2023-02-02T03:25:47;98460.03;;;2.44;81.36
56241;BME280;42155;53.096;23.226;2023-02-02T03:27:48;98446.25;;;2.42;81.20
56241;BME280;42155;53.096;23.226;2023-02-02T03:29:49;98418.31;;;2.30;81.11
56241;BME280;42155;53.096;23.226;2023-02-02T03:31:49;98414.13;;;2.27;80.68
56241;BME280;42155;53.096;23.226;2023-02-02T03:33:50;98465.78;;;2.49;81.29
56241;BME280;42155;53.096;23.226;2023-02-02T03:35:50;98459.13;;;2.45;81.61
56241;BME280;42155;53.096;23.226;2023-02-02T03:37:51;98461.75;;;2.45;81.06
56241;BME280;42155;53.096;23.226;2023-02-02T03:39:52;98454.59;;;2.47;80.98
56241;BME280;42155;53.096;23.226;2023-02-02T03:41:52;98461.41;;;2.50;81.10
56241;BME280;42155;53.096;23.226;2023-02-02T03:43:52;98464.03;;;2.50;81.30
56241;BME280;42155;53.096;23.226;2023-02-02T03:45:57;98463.78;;;2.53;80.96
56241;BME280;42155;53.096;23.226;2023-02-02T03:47:58;98446.25;;;2.42;81.32
56241;BME280;42155;53.096;23.226;2023-02-02T03:49:58;98467.25;;;2.53;81.17
56241;BME280;42155;53.096;23.226;2023-02-02T03:51:59;98468.69;;;2.58;80.87
56241;BME280;42155;53.096;23.226;2023-02-02T03:53:59;98462.84;;;2.54;80.62
56241;BME280;42155;53.096;23.226;2023-02-02T03:55:59;98467.66;;;2.60;80.49
56241;BME280;42155;53.096;23.226;2023-02-02T03:58:00;98473.72;;;2.61;81.22
56241;BME280;42155;53.096;23.226;2023-02-02T04:00:00;98459.88;;;2.59;80.95
56241;BME280;42155;53.096;23.226;2023-02-02T04:02:01;98470.16;;;2.62;81.11
56241;BME280;42155;53.096;23.226;2023-02-02T04:04:01;98460.13;;;2.55;80.50
56241;BME280;42155;53.096;23.226;2023-02-02T04:06:02;98443.16;;;2.48;80.97
56241;BME280;42155;53.096;23.226;2023-02-02T04:08:02;98475.38;;;2.62;80.63
56241;BME280;42155;53.096;23.226;2023-02-02T04:10:04;98471.00;;;2.62;81.10
56241;BME280;42155;53.096;23.226;2023-02-02T04:12:04;98396.81;;;2.14;80.82
56241;BME280;42155;53.096;23.226;2023-02-02T04:14:04;98470.38;;;2.59;81.21
56241;BME280;42155;53.096;23.226;2023-02-02T04:16:05;98459.28;;;2.55;80.72
56241;BME280;42155;53.096;23.226;2023-02-02T04:18:05;98469.84;;;2.53;81.48
56241;BME280;42155;53.096;23.226;2023-02-02T04:20:06;98443.63;;;2.42;80.83
56241;BME280;42155;53.096;23.226;2023-02-02T04:22:06;98455.56;;;2.46;81.01
56241;BME280;42155;53.096;23.226;2023-02-02T04:24:11;98467.25;;;2.53;81.43
56241;BME280;42155;53.096;23.226;2023-02-02T04:26:12;98468.31;;;2.51;81.21
56241;BME280;42155;53.096;23.226;2023-02-02T04:28:12;98460.34;;;2.52;81.56
56241;BME280;42155;53.096;23.226;2023-02-02T04:30:12;98468.19;;;2.52;80.88
56241;BME280;42155;53.096;23.226;2023-02-02T04:32:14;98458.03;;;2.48;80.98
56241;BME280;42155;53.096;23.226;2023-02-02T04:34:15;98461.09;;;2.54;81.50
56241;BME280;42155;53.096;23.226;2023-02-02T04:36:15;98463.47;;;2.58;80.95
56241;BME280;42155;53.096;23.226;2023-02-02T04:38:15;98470.38;;;2.59;80.92
56241;BME280;42155;53.096;23.226;2023-02-02T04:40:16;98432.31;;;2.42;80.61
56241;BME280;42155;53.096;23.226;2023-02-02T04:42:16;98462.75;;;2.55;81.36
56241;BME280;42155;53.096;23.226;2023-02-02T04:44:16;98464.63;;;2.53;81.37
56241;BME280;42155;53.096;23.226;2023-02-02T04:46:17;98467.47;;;2.50;81.12
56241;BME280;42155;53.096;23.226;2023-02-02T04:48:17;98471.66;;;2.53;80.92
56241;BME280;42155;53.096;23.226;2023-02-02T04:50:18;98464.13;;;2.48;81.71
56241;BME280;42155;53.096;23.226;2023-02-02T04:52:18;98476.66;;;2.56;81.32
56241;BME280;42155;53.096;23.226;2023-02-02T04:54:18;98463.16;;;2.49;81.06
56241;BME280;42155;53.096;23.226;2023-02-02T04:56:19;98476.66;;;2.56;81.00
56241;BME280;42155;53.096;23.226;2023-02-02T04:58:19;98477.28;;;2.60;81.50
56241;BME280;42155;53.096;23.226;2023-02-02T05:00:20;98477.28;;;2.60;80.74
56241;BME280;42155;53.096;23.226;2023-02-02T05:02:20;98458.59;;;2.40;80.97
56241;BME280;42155;53.096;23.226;2023-02-02T05:04:20;98482.34;;;2.50;81.58
56241;BME280;42155;53.096;23.226;2023-02-02T05:06:21;98492.59;;;2.53;81.38
56241;BME280;42155;53.096;23.226;2023-02-02T05:08:21;98480.91;;;2.46;81.10
56241;BME280;42155;53.096;23.226;2023-02-02T05:10:21;98486.53;;;2.52;81.34
56241;BME280;42155;53.096;23.226;2023-02-02T05:12:22;98486.41;;;2.54;81.12
56241;BME280;42155;53.096;23.226;2023-02-02T05:14:22;98471.66;;;2.40;81.30
56241;BME280;42155;53.096;23.226;2023-02-02T05:16:23;98477.31;;;2.47;81.37
56241;BME280;42155;53.096;23.226;2023-02-02T05:18:23;98489.13;;;2.52;81.96
56241;BME280;42155;53.096;23.226;2023-02-02T05:20:23;98490.94;;;2.52;81.72
56241;BME280;42155;53.096;23.226;2023-02-02T05:22:24;98502.22;;;2.52;81.72
56241;BME280;42155;53.096;23.226;2023-02-02T05:24:24;98491.75;;;2.52;81.77
56241;BME280;42155;53.096;23.226;2023-02-02T05:26:25;98501.78;;;2.59;81.50
56241;BME280;42155;53.096;23.226;2023-02-02T05:28:26;98499.63;;;2.52;81.02
56241;BME280;42155;53.096;23.226;2023-02-02T05:30:26;98441.06;;;2.17;81.44
56241;BME280;42155;53.096;23.226;2023-02-02T05:32:27;98495.84;;;2.57;81.36
56241;BME280;42155;53.096;23.226;2023-02-02T05:34:27;98499.09;;;2.60;80.90
56241;BME280;42155;53.096;23.226;2023-02-02T05:36:28;98502.03;;;2.55;80.89
56241;BME280;42155;53.096;23.226;2023-02-02T05:38:28;98500.56;;;2.51;81.63
56241;BME280;42155;53.096;23.226;2023-02-02T05:40:29;98490.22;;;2.37;81.21
56241;BME280;42155;53.096;23.226;2023-02-02T05:42:29;98475.19;;;2.28;81.51
56241;BME280;42155;53.096;23.226;2023-02-02T05:44:30;98503.91;;;2.53;81.42
56241;BME280;42155;53.096;23.226;2023-02-02T05:46:30;98507.47;;;2.52;81.31
56241;BME280;42155;53.096;23.226;2023-02-02T05:48:30;98509.88;;;2.55;81.43
56241;BME280;42155;53.096;23.226;2023-02-02T05:50:31;98501.78;;;2.59;80.99
56241;BME280;42155;53.096;23.226;2023-02-02T05:52:33;98515.84;;;2.58;81.04
56241;BME280;42155;53.096;23.226;2023-02-02T05:54:34;98509.97;;;2.54;81.41
56241;BME280;42155;53.096;23.226;2023-02-02T05:56:35;98511.66;;;2.55;81.72
56241;BME280;42155;53.096;23.226;2023-02-02T05:58:35;98514.69;;;2.62;81.28
56241;BME280;42155;53.096;23.226;2023-02-02T06:00:35;98526.81;;;2.63;81.23
56241;BME280;42155;53.096;23.226;2023-02-02T06:02:36;98523.16;;;2.65;81.36
56241;BME280;42155;53.096;23.226;2023-02-02T06:04:36;98514.06;;;2.58;80.92
56241;BME280;42155;53.096;23.226;2023-02-02T06:06:36;98522.31;;;2.65;81.28
56241;BME280;42155;53.096;23.226;2023-02-02T06:08:37;98532.34;;;2.71;80.71
56241;BME280;42155;53.096;23.226;2023-02-02T06:10:39;98505.59;;;2.54;81.05
56241;BME280;42155;53.096;23.226;2023-02-02T06:12:39;98518.13;;;2.62;81.38
56241;BME280;42155;53.096;23.226;2023-02-02T06:14:39;98527.13;;;2.71;81.46
56241;BME280;42155;53.096;23.226;2023-02-02T06:16:40;98524.50;;;2.71;81.45
56241;BME280;42155;53.096;23.226;2023-02-02T06:18:40;98526.78;;;2.75;81.41
56241;BME280;42155;53.096;23.226;2023-02-02T06:20:40;98530.47;;;2.73;80.92
56241;BME280;42155;53.096;23.226;2023-02-02T06:22:41;98531.72;;;2.67;81.41
56241;BME280;42155;53.096;23.226;2023-02-02T06:24:41;98481.31;;;2.40;81.39
56241;BME280;42155;53.096;23.226;2023-02-02T06:26:41;98527.94;;;2.71;81.74
56241;BME280;42155;53.096;23.226;2023-02-02T06:28:42;98531.31;;;2.73;81.10
56241;BME280;42155;53.096;23.226;2023-02-02T06:30:43;98527.94;;;2.71;81.06
56241;BME280;42155;53.096;23.226;2023-02-02T06:32:43;98537.91;;;2.79;81.36
56241;BME280;42155;53.096;23.226;2023-02-02T06:34:43;98542.19;;;2.80;80.97
56241;BME280;42155;53.096;23.226;2023-02-02T06:36:43;98511.09;;;2.63;80.83
56241;BME280;42155;53.096;23.226;2023-02-02T06:38:48;98538.72;;;2.79;81.18
56241;BME280;42155;53.096;23.226;2023-02-02T06:40:48;98539.75;;;2.77;81.16
56241;BME280;42155;53.096;23.226;2023-02-02T06:42:57;98534.66;;;2.75;80.99
56241;BME280;42155;53.096;23.226;2023-02-02T06:44:58;98534.66;;;2.75;81.11
56241;BME280;42155;53.096;23.226;2023-02-02T06:46:58;98543.00;;;2.80;81.48
56241;BME280;42155;53.096;23.226;2023-02-02T06:48:58;98541.97;;;2.83;81.26
56241;BME280;42155;53.096;23.226;2023-02-02T06:50:59;98537.69;;;2.82;81.06
56241;BME280;42155;53.096;23.226;2023-02-02T06:52:59;98535.78;;;2.84;80.70
56241;BME280;42155;53.096;23.226;2023-02-02T06:55:00;98542.69;;;2.85;80.84
56241;BME280;42155;53.096;23.226;2023-02-02T06:57:00;98531.00;;;2.78;81.05
56241;BME280;42155;53.096;23.226;2023-02-02T06:59:00;98532.53;;;2.80;80.62
56241;BME280;42155;53.096;23.226;2023-02-02T07:01:11;98526.47;;;2.80;80.92
56241;BME280;42155;53.096;23.226;2023-02-02T07:03:11;98492.50;;;2.54;81.31
56241;BME280;42155;53.096;23.226;2023-02-02T07:05:12;98534.13;;;2.83;81.16
56241;BME280;42155;53.096;23.226;2023-02-02T07:07:12;98538.59;;;2.81;81.43
56241;BME280;42155;53.096;23.226;2023-02-02T07:09:12;98541.97;;;2.83;81.01
56241;BME280;42155;53.096;23.226;2023-02-02T07:11:13;98528.47;;;2.76;80.97
56241;BME280;42155;53.096;23.226;2023-02-02T07:13:13;98540.72;;;2.76;81.10
56241;BME280;42155;53.096;23.226;2023-02-02T07:15:13;98540.50;;;2.79;81.31
56241;BME280;42155;53.096;23.226;2023-02-02T07:17:14;98546.38;;;2.83;81.67
56241;BME280;42155;53.096;23.226;2023-02-02T07:19:14;98536.94;;;2.80;80.96
56241;BME280;42155;53.096;23.226;2023-02-02T07:21:17;98532.03;;;2.75;81.61
56241;BME280;42155;53.096;23.226;2023-02-02T07:23:18;98535.91;;;2.83;81.23
56241;BME280;42155;53.096;23.226;2023-02-02T07:25:19;98543.31;;;2.89;81.58
56241;BME280;42155;53.096;23.226;2023-02-02T07:27:19;98534.81;;;2.85;81.81
56241;BME280;42155;53.096;23.226;2023-02-02T07:29:19;98545.09;;;2.88;81.81
56241;BME280;42155;53.096;23.226;2023-02-02T07:31:25;98532.31;;;2.84;81.45
56241;BME280;42155;53.096;23.226;2023-02-02T07:33:26;98503.66;;;2.69;81.22
56241;BME280;42155;53.096;23.226;2023-02-02T07:35:26;98542.78;;;2.96;81.27
56241;BME280;42155;53.096;23.226;2023-02-02T07:37:26;98531.03;;;2.89;81.11
56241;BME280;42155;53.096;23.226;2023-02-02T07:39:27;98548.50;;;3.01;81.49
56241;BME280;42155;53.096;23.226;2023-02-02T07:41:27;98542.31;;;3.02;81.43
56241;BME280;42155;53.096;23.226;2023-02-02T07:43:27;98554.47;;;3.03;81.00
56241;BME280;42155;53.096;23.226;2023-02-02T07:45:28;98526.25;;;2.83;81.43
56241;BME280;42155;53.096;23.226;2023-02-02T07:47:28;98510.03;;;2.78;81.10
56241;BME280;42155;53.096;23.226;2023-02-02T07:49:28;98531.03;;;2.89;81.40
56241;BME280;42155;53.096;23.226;2023-02-02T07:51:29;98565.91;;;3.02;81.36
56241;BME280;42155;53.096;23.226;2023-02-02T07:53:29;98547.88;;;2.98;81.61
56241;BME280;42155;53.096;23.226;2023-02-02T07:55:30;98546.56;;;2.92;81.55
56241;BME280;42155;53.096;23.226;2023-02-02T07:57:30;98555.88;;;2.96;81.51
56241;BME280;42155;53.096;23.226;2023-02-02T07:59:30;98555.75;;;2.98;81.03
56241;BME280;42155;53.096;23.226;2023-02-02T08:01:31;98530.53;;;2.84;81.50
56241;BME280;42155;53.096;23.226;2023-02-02T08:03:31;98558.03;;;3.02;81.17
56241;BME280;42155;53.096;23.226;2023-02-02T08:05:32;98542.53;;;2.99;80.97
56241;BME280;42155;53.096;23.226;2023-02-02T08:07:33;98562.94;;;3.07;81.17
56241;BME280;42155;53.096;23.226;2023-02-02T08:09:34;98573.56;;;3.05;81.08
56241;BME280;42155;53.096;23.226;2023-02-02T08:11:35;98551.34;;;2.98;81.54
56241;BME280;42155;53.096;23.226;2023-02-02T08:13:36;98566.63;;;3.04;81.25
56241;BME280;42155;53.096;23.226;2023-02-02T08:15:37;98571.84;;;3.04;81.46
56241;BME280;42155;53.096;23.226;2023-02-02T08:17:37;98570.19;;;3.03;80.79
56241;BME280;42155;53.096;23.226;2023-02-02T08:19:37;98576.88;;;3.08;81.63
56241;BME280;42155;53.096;23.226;2023-02-02T08:21:38;98566.69;;;2.92;81.26
56241;BME280;42155;53.096;23.226;2023-02-02T08:23:39;98582.47;;;3.03;81.67
56241;BME280;42155;53.096;23.226;2023-02-02T08:25:41;98566.22;;;2.98;81.59
56241;BME280;42155;53.096;23.226;2023-02-02T08:27:41;98577.50;;;3.11;81.52
56241;BME280;42155;53.096;23.226;2023-02-02T08:29:42;98580.13;;;3.11;81.38
56241;BME280;42155;53.096;23.226;2023-02-02T08:31:43;98575.22;;;3.06;81.68
56241;BME280;42155;53.096;23.226;2023-02-02T08:33:44;98586.41;;;3.09;81.41
56241;BME280;42155;53.096;23.226;2023-02-02T08:35:44;98588.84;;;3.12;81.41
56241;BME280;42155;53.096;23.226;2023-02-02T08:37:48;98582.63;;;3.13;81.12
56241;BME280;42155;53.096;23.226;2023-02-02T08:39:48;98586.50;;;3.20;81.12
56241;BME280;42155;53.096;23.226;2023-02-02T08:41:49;98583.13;;;3.18;80.93
56241;BME280;42155;53.096;23.226;2023-02-02T08:43:50;98591.97;;;3.17;81.27
56241;BME280;42155;53.096;23.226;2023-02-02T08:45:50;98605.19;;;3.15;81.15
56241;BME280;42155;53.096;23.226;2023-02-02T08:47:51;98599.94;;;3.15;81.42
56241;BME280;42155;53.096;23.226;2023-02-02T08:49:52;98603.56;;;3.25;81.43
56241;BME280;42155;53.096;23.226;2023-02-02T08:51:52;98585.03;;;3.16;81.59
56241;BME280;42155;53.096;23.226;2023-02-02T08:53:53;98517.88;;;2.78;80.84
56241;BME280;42155;53.096;23.226;2023-02-02T08:56:02;98593.53;;;3.19;81.37
56241;BME280;42155;53.096;23.226;2023-02-02T08:58:02;98610.16;;;3.31;81.42
56241;BME280;42155;53.096;23.226;2023-02-02T09:00:03;98615.50;;;3.29;81.13
56241;BME280;42155;53.096;23.226;2023-02-02T09:02:04;98617.28;;;3.29;80.85
56241;BME280;42155;53.096;23.226;2023-02-02T09:04:06;98613.72;;;3.30;81.03
56241;BME280;42155;53.096;23.226;2023-02-02T09:06:14;98620.75;;;3.29;81.38
56241;BME280;42155;53.096;23.226;2023-02-02T09:08:15;98626.09;;;3.28;81.09
56241;BME280;42155;53.096;23.226;2023-02-02T09:10:15;98560.38;;;2.94;81.20
56241;BME280;42155;53.096;23.226;2023-02-02T09:12:15;98620.41;;;3.34;81.09
56241;BME280;42155;53.096;23.226;2023-02-02T09:14:16;98615.38;;;3.31;81.23
56241;BME280;42155;53.096;23.226;2023-02-02T09:16:17;98622.09;;;3.35;81.33
56241;BME280;42155;53.096;23.226;2023-02-02T09:18:18;98624.50;;;3.38;81.46
56241;BME280;42155;53.096;23.226;2023-02-02T09:20:18;98623.44;;;3.41;81.33
56241;BME280;42155;53.096;23.226;2023-02-02T09:22:19;98617.47;;;3.39;81.10
56241;BME280;42155;53.096;23.226;2023-02-02T09:24:19;98626.47;;;3.47;81.27
56241;BME280;42155;53.096;23.226;2023-02-02T09:26:27;98614.38;;;3.45;81.36
56241;BME280;42155;53.096;23.226;2023-02-02T09:28:28;98603.34;;;3.52;80.89
56241;BME280;42155;53.096;23.226;2023-02-02T09:30:28;98620.09;;;3.63;80.51
56241;BME280;42155;53.096;23.226;2023-02-02T09:32:28;98634.66;;;3.67;80.80
56241;BME280;42155;53.096;23.226;2023-02-02T09:34:29;98626.16;;;3.63;81.14
56241;BME280;42155;53.096;23.226;2023-02-02T09:36:29;98630.13;;;3.69;81.04
56241;BME280;42155;53.096;23.226;2023-02-02T09:38:30;98636.81;;;3.73;80.92
56241;BME280;42155;53.096;23.226;2023-02-02T09:40:31;98630.94;;;3.69;80.80
56241;BME280;42155;53.096;23.226;2023-02-02T09:42:38;98638.47;;;3.74;81.32
56241;BME280;42155;53.096;23.226;2023-02-02T09:45:02;98640.19;;;3.75;81.34
56241;BME280;42155;53.096;23.226;2023-02-02T09:49:26;98615.81;;;3.73;81.11
56241;BME280;42155;53.096;23.226;2023-02-02T09:51:36;98629.72;;;3.86;80.80
56241;BME280;42155;53.096;23.226;2023-02-02T09:55:41;98632.28;;;3.99;80.92
56241;BME280;42155;53.096;23.226;2023-02-02T09:57:48;98629.66;;;4.10;80.37
56241;BME280;42155;53.096;23.226;2023-02-02T09:59:51;98625.03;;;4.14;80.09
56241;BME280;42155;53.096;23.226;2023-02-02T10:01:54;98604.34;;;3.98;80.57
56241;BME280;42155;53.096;23.226;2023-02-02T10:04:00;98638.84;;;4.16;80.84
56241;BME280;42155;53.096;23.226;2023-02-02T10:08:47;98630.75;;;4.19;80.36
56241;BME280;42155;53.096;23.226;2023-02-02T10:10:50;98604.50;;;4.07;80.17
56241;BME280;42155;53.096;23.226;2023-02-02T10:15:11;98642.59;;;4.24;80.43
56241;BME280;42155;53.096;23.226;2023-02-02T10:19:25;98636.50;;;4.24;80.13
56241;BME280;42155;53.096;23.226;2023-02-02T10:21:30;98640.44;;;4.29;80.55
56241;BME280;42155;53.096;23.226;2023-02-02T10:25:42;98642.84;;;4.32;80.67
56241;BME280;42155;53.096;23.226;2023-02-02T10:28:01;98642.50;;;4.37;80.61
56241;BME280;42155;53.096;23.226;2023-02-02T10:30:36;98631.78;;;4.40;80.74
56241;BME280;42155;53.096;23.226;2023-02-02T10:33:03;98632.72;;;4.50;79.89
56241;BME280;42155;53.096;23.226;2023-02-02T10:42:14;98587.34;;;4.26;80.14
56241;BME280;42155;53.096;23.226;2023-02-02T10:44:43;98632.72;;;4.50;79.97
56241;BME280;42155;53.096;23.226;2023-02-02T10:46:49;98551.25;;;3.94;80.17
56241;BME280;42155;53.096;23.226;2023-02-02T10:49:13;98624.00;;;4.39;79.76
56241;BME280;42155;53.096;23.226;2023-02-02T10:51:26;98643.59;;;4.57;79.53
56241;BME280;42155;53.096;23.226;2023-02-02T10:53:28;98652.31;;;4.57;79.58
56241;BME280;42155;53.096;23.226;2023-02-02T10:55:40;98616.94;;;4.28;80.14
56241;BME280;42155;53.096;23.226;2023-02-02T11:02:17;98602.63;;;4.32;79.81
56241;BME280;42155;53.096;23.226;2023-02-02T11:04:19;98632.50;;;4.53;79.44
56241;BME280;42155;53.096;23.226;2023-02-02T11:06:20;98648.75;;;4.70;79.73
56241;BME280;42155;53.096;23.226;2023-02-02T11:08:27;98633.56;;;4.62;79.49
56241;BME280;42155;53.096;23.226;2023-02-02T11:10:31;98654.97;;;4.80;79.22
56241;BME280;42155;53.096;23.226;2023-02-02T11:12:34;98651.13;;;4.84;79.36
56241;BME280;42155;53.096;23.226;2023-02-02T11:14:40;98651.88;;;4.86;79.34
56241;BME280;42155;53.096;23.226;2023-02-02T11:16:44;98635.25;;;4.74;79.26
56241;BME280;42155;53.096;23.226;2023-02-02T11:18:45;98654.84;;;4.93;79.22
56241;BME280;42155;53.096;23.226;2023-02-02T11:20:45;98660.84;;;4.95;78.86
56241;BME280;42155;53.096;23.226;2023-02-02T11:22:46;98649.72;;;4.91;79.02
56241;BME280;42155;53.096;23.226;2023-02-02T11:24:47;98662.59;;;4.94;79.08
56241;BME280;42155;53.096;23.226;2023-02-02T11:26:55;98662.59;;;4.94;78.91
56241;BME280;42155;53.096;23.226;2023-02-02T11:28:58;98665.13;;;4.96;79.25
56241;BME280;42155;53.096;23.226;2023-02-02T11:30:58;98640.88;;;4.81;78.79
56241;BME280;42155;53.096;23.226;2023-02-02T11:32:59;98672.28;;;4.94;78.90
56241;BME280;42155;53.096;23.226;2023-02-02T11:35:19;98672.41;;;4.92;79.41
56241;BME280;42155;53.096;23.226;2023-02-02T11:37:20;98674.81;;;4.95;79.07
56241;BME280;42155;53.096;23.226;2023-02-02T11:39:22;98666.47;;;4.90;78.94
56241;BME280;42155;53.096;23.226;2023-02-02T11:41:22;98673.84;;;4.96;78.92